sensor_id;sensor_type;location;lat;lon;timestamp;temperature;humidity
20081;DHT22;10200;49.232;9.222;2024-03-08T00:01:30;5.30;96.80
20081;DHT22;10200;49.232;9.222;2024-03-08T00:03:56;5.30;97.00
20081;DHT22;10200;49.232;9.222;2024-03-08T00:06:22;5.30;97.10
20081;DHT22;10200;49.232;9.222;2024-03-08T00:08:48;5.20;97.20
20081;DHT22;10200;49.232;9.222;2024-03-08T00:11:14;5.20;97.30
20081;DHT22;10200;49.232;9.222;2024-03-08T00:13:40;5.10;97.70
20081;DHT22;10200;49.232;9.222;2024-03-08T00:16:07;5.10;97.50
20081;DHT22;10200;49.232;9.222;2024-03-08T00:18:34;5.10;97.60
20081;DHT22;10200;49.232;9.222;2024-03-08T00:21:00;5.10;97.90
20081;DHT22;10200;49.232;9.222;2024-03-08T00:23:26;5.10;98.00
20081;DHT22;10200;49.232;9.222;2024-03-08T00:25:53;5.00;98.00
20081;DHT22;10200;49.232;9.222;2024-03-08T00:28:20;5.00;98.40
20081;DHT22;10200;49.232;9.222;2024-03-08T00:30:46;4.90;98.50
20081;DHT22;10200;49.232;9.222;2024-03-08T00:33:12;4.90;98.80
20081;DHT22;10200;49.232;9.222;2024-03-08T00:35:37;4.90;98.60
20081;DHT22;10200;49.232;9.222;2024-03-08T00:38:03;4.90;98.70
20081;DHT22;10200;49.232;9.222;2024-03-08T00:40:29;4.80;98.90
20081;DHT22;10200;49.232;9.222;2024-03-08T00:42:55;4.80;99.00
20081;DHT22;10200;49.232;9.222;2024-03-08T00:45:20;4.80;99.10
20081;DHT22;10200;49.232;9.222;2024-03-08T00:47:47;4.80;99.10
20081;DHT22;10200;49.232;9.222;2024-03-08T00:50:13;4.80;99.30
20081;DHT22;10200;49.232;9.222;2024-03-08T00:52:39;4.80;99.40
20081;DHT22;10200;49.232;9.222;2024-03-08T00:55:05;4.70;99.40
20081;DHT22;10200;49.232;9.222;2024-03-08T00:57:31;4.70;99.50
20081;DHT22;10200;49.232;9.222;2024-03-08T00:59:58;4.70;99.60
20081;DHT22;10200;49.232;9.222;2024-03-08T01:02:24;4.60;99.90
20081;DHT22;10200;49.232;9.222;2024-03-08T01:04:49;4.60;99.90
20081;DHT22;10200;49.232;9.222;2024-03-08T01:07:15;4.60;99.90
20081;DHT22;10200;49.232;9.222;2024-03-08T01:09:41;4.60;99.90
20081;DHT22;10200;49.232;9.222;2024-03-08T01:12:07;4.50;99.90
20081;DHT22;10200;49.232;9.222;2024-03-08T01:14:33;4.60;99.90
20081;DHT22;10200;49.232;9.222;2024-03-08T01:16:59;4.50;99.90
20081;DHT22;10200;49.232;9.222;2024-03-08T01:19:25;4.50;99.90
20081;DHT22;10200;49.232;9.222;2024-03-08T01:21:50;4.40;99.90
20081;DHT22;10200;49.232;9.222;2024-03-08T01:24:16;4.40;99.90
20081;DHT22;10200;49.232;9.222;2024-03-08T01:26:42;4.40;99.90
20081;DHT22;10200;49.232;9.222;2024-03-08T01:29:08;4.30;99.90
20081;DHT22;10200;49.232;9.222;2024-03-08T01:31:34;4.40;99.90
20081;DHT22;10200;49.232;9.222;2024-03-08T01:33:59;4.30;99.90
20081;DHT22;10200;49.232;9.222;2024-03-08T01:36:25;4.30;99.90
20081;DHT22;10200;49.232;9.222;2024-03-08T01:38:52;4.50;99.90
20081;DHT22;10200;49.232;9.222;2024-03-08T01:41:18;4.30;99.90
20081;DHT22;10200;49.232;9.222;2024-03-08T01:43:44;4.30;99.90
20081;DHT22;10200;49.232;9.222;2024-03-08T01:46:12;4.20;99.90
20081;DHT22;10200;49.232;9.222;2024-03-08T01:48:40;4.20;99.90
20081;DHT22;10200;49.232;9.222;2024-03-08T01:51:07;4.10;99.90
20081;DHT22;10200;49.232;9.222;2024-03-08T01:53:33;4.10;99.90
20081;DHT22;10200;49.232;9.222;2024-03-08T01:56:00;4.20;99.90
20081;DHT22;10200;49.232;9.222;2024-03-08T01:58:29;4.10;99.90
20081;DHT22;10200;49.232;9.222;2024-03-08T02:00:56;4.10;99.90
20081;DHT22;10200;49.232;9.222;2024-03-08T02:03:22;4.20;99.90
20081;DHT22;10200;49.232;9.222;2024-03-08T02:05:48;4.10;99.90
20081;DHT22;10200;49.232;9.222;2024-03-08T02:08:14;4.10;99.90
20081;DHT22;10200;49.232;9.222;2024-03-08T02:10:41;4.10;99.90
20081;DHT22;10200;49.232;9.222;2024-03-08T02:13:07;4.00;99.90
20081;DHT22;10200;49.232;9.222;2024-03-08T02:18:21;4.00;99.90
20081;DHT22;10200;49.232;9.222;2024-03-08T02:21:01;4.30;99.90
20081;DHT22;10200;49.232;9.222;2024-03-08T02:23:28;4.00;99.90
20081;DHT22;10200;49.232;9.222;2024-03-08T02:25:55;4.00;99.90
20081;DHT22;10200;49.232;9.222;2024-03-08T02:28:22;3.90;99.90
20081;DHT22;10200;49.232;9.222;2024-03-08T02:30:52;3.90;99.90
20081;DHT22;10200;49.232;9.222;2024-03-08T02:33:21;3.90;99.90
20081;DHT22;10200;49.232;9.222;2024-03-08T02:35:48;3.90;99.90
20081;DHT22;10200;49.232;9.222;2024-03-08T02:38:16;3.90;99.90
20081;DHT22;10200;49.232;9.222;2024-03-08T02:40:42;3.80;99.90
20081;DHT22;10200;49.232;9.222;2024-03-08T02:43:09;3.90;99.90
20081;DHT22;10200;49.232;9.222;2024-03-08T02:45:35;3.90;99.90
20081;DHT22;10200;49.232;9.222;2024-03-08T02:48:01;3.80;99.90
20081;DHT22;10200;49.232;9.222;2024-03-08T02:50:27;3.80;99.90
20081;DHT22;10200;49.232;9.222;2024-03-08T02:52:53;4.30;99.90
20081;DHT22;10200;49.232;9.222;2024-03-08T02:55:19;3.80;99.90
20081;DHT22;10200;49.232;9.222;2024-03-08T02:57:46;3.80;99.90
20081;DHT22;10200;49.232;9.222;2024-03-08T03:00:14;3.80;99.90
20081;DHT22;10200;49.232;9.222;2024-03-08T03:02:41;3.80;99.90
20081;DHT22;10200;49.232;9.222;2024-03-08T03:05:08;3.70;99.90
20081;DHT22;10200;49.232;9.222;2024-03-08T03:07:35;3.70;99.90
20081;DHT22;10200;49.232;9.222;2024-03-08T03:10:01;3.70;99.90
20081;DHT22;10200;49.232;9.222;2024-03-08T03:12:28;3.70;99.90
20081;DHT22;10200;49.232;9.222;2024-03-08T03:14:54;4.30;99.90
20081;DHT22;10200;49.232;9.222;2024-03-08T03:17:24;3.70;99.90
20081;DHT22;10200;49.232;9.222;2024-03-08T03:19:50;3.70;99.90
20081;DHT22;10200;49.232;9.222;2024-03-08T03:22:19;3.70;99.90
20081;DHT22;10200;49.232;9.222;2024-03-08T03:24:45;3.80;99.90
20081;DHT22;10200;49.232;9.222;2024-03-08T03:27:17;3.60;99.90
20081;DHT22;10200;49.232;9.222;2024-03-08T03:29:43;3.50;99.90
20081;DHT22;10200;49.232;9.222;2024-03-08T03:32:12;3.60;99.90
20081;DHT22;10200;49.232;9.222;2024-03-08T03:34:39;3.60;99.90
20081;DHT22;10200;49.232;9.222;2024-03-08T03:37:05;3.60;99.90
20081;DHT22;10200;49.232;9.222;2024-03-08T03:39:32;3.60;99.90
20081;DHT22;10200;49.232;9.222;2024-03-08T03:42:01;3.50;99.90
20081;DHT22;10200;49.232;9.222;2024-03-08T03:44:30;3.50;99.90
20081;DHT22;10200;49.232;9.222;2024-03-08T03:46:56;3.50;99.90
20081;DHT22;10200;49.232;9.222;2024-03-08T03:49:22;3.60;99.90
20081;DHT22;10200;49.232;9.222;2024-03-08T03:51:49;3.50;99.90
20081;DHT22;10200;49.232;9.222;2024-03-08T03:54:15;3.50;99.90
20081;DHT22;10200;49.232;9.222;2024-03-08T03:56:41;3.50;99.90
20081;DHT22;10200;49.232;9.222;2024-03-08T03:59:06;3.50;99.90
20081;DHT22;10200;49.232;9.222;2024-03-08T04:01:33;3.50;99.90
20081;DHT22;10200;49.232;9.222;2024-03-08T04:03:59;3.50;99.90
20081;DHT22;10200;49.232;9.222;2024-03-08T04:06:25;3.40;99.90
20081;DHT22;10200;49.232;9.222;2024-03-08T04:08:50;3.50;99.90
20081;DHT22;10200;49.232;9.222;2024-03-08T04:11:16;3.40;99.90
20081;DHT22;10200;49.232;9.222;2024-03-08T04:13:43;3.40;99.90
20081;DHT22;10200;49.232;9.222;2024-03-08T04:16:08;3.40;99.90
20081;DHT22;10200;49.232;9.222;2024-03-08T04:18:36;3.40;99.90
20081;DHT22;10200;49.232;9.222;2024-03-08T04:21:06;3.40;99.90
20081;DHT22;10200;49.232;9.222;2024-03-08T04:23:35;3.40;99.90
20081;DHT22;10200;49.232;9.222;2024-03-08T04:26:02;3.80;99.90
20081;DHT22;10200;49.232;9.222;2024-03-08T04:28:31;3.40;99.90
20081;DHT22;10200;49.232;9.222;2024-03-08T04:30:57;3.40;99.90
20081;DHT22;10200;49.232;9.222;2024-03-08T04:33:23;3.40;99.90
20081;DHT22;10200;49.232;9.222;2024-03-08T04:35:49;3.40;99.90
20081;DHT22;10200;49.232;9.222;2024-03-08T04:38:15;3.40;99.90
20081;DHT22;10200;49.232;9.222;2024-03-08T04:40:41;3.40;99.90
20081;DHT22;10200;49.232;9.222;2024-03-08T04:43:07;3.40;99.90
20081;DHT22;10200;49.232;9.222;2024-03-08T04:45:34;3.40;99.90
20081;DHT22;10200;49.232;9.222;2024-03-08T04:47:59;3.40;99.90
20081;DHT22;10200;49.232;9.222;2024-03-08T04:50:25;3.30;99.90
20081;DHT22;10200;49.232;9.222;2024-03-08T04:52:54;3.30;99.90
20081;DHT22;10200;49.232;9.222;2024-03-08T04:55:20;3.30;99.90
20081;DHT22;10200;49.232;9.222;2024-03-08T04:57:47;3.20;99.90
20081;DHT22;10200;49.232;9.222;2024-03-08T05:00:13;3.30;99.90
20081;DHT22;10200;49.232;9.222;2024-03-08T05:02:41;3.30;99.90
20081;DHT22;10200;49.232;9.222;2024-03-08T05:05:07;3.30;99.90
20081;DHT22;10200;49.232;9.222;2024-03-08T05:07:38;3.20;99.90
20081;DHT22;10200;49.232;9.222;2024-03-08T05:10:05;3.20;99.90
20081;DHT22;10200;49.232;9.222;2024-03-08T05:12:32;3.20;99.90
20081;DHT22;10200;49.232;9.222;2024-03-08T05:14:58;3.10;99.90
20081;DHT22;10200;49.232;9.222;2024-03-08T05:17:24;3.20;99.90
20081;DHT22;10200;49.232;9.222;2024-03-08T05:19:50;3.40;99.90
20081;DHT22;10200;49.232;9.222;2024-03-08T05:22:16;3.20;99.90
20081;DHT22;10200;49.232;9.222;2024-03-08T05:24:43;3.30;99.90
20081;DHT22;10200;49.232;9.222;2024-03-08T05:27:08;3.20;99.90
20081;DHT22;10200;49.232;9.222;2024-03-08T05:29:34;3.20;99.90
20081;DHT22;10200;49.232;9.222;2024-03-08T05:32:00;3.30;99.90
20081;DHT22;10200;49.232;9.222;2024-03-08T05:34:27;3.30;99.90
20081;DHT22;10200;49.232;9.222;2024-03-08T05:36:54;3.30;99.90
20081;DHT22;10200;49.232;9.222;2024-03-08T05:39:20;3.30;99.90
20081;DHT22;10200;49.232;9.222;2024-03-08T05:41:46;3.30;99.90
20081;DHT22;10200;49.232;9.222;2024-03-08T05:44:12;3.30;99.90
20081;DHT22;10200;49.232;9.222;2024-03-08T05:46:39;3.30;99.90
20081;DHT22;10200;49.232;9.222;2024-03-08T05:49:06;3.30;99.90
20081;DHT22;10200;49.232;9.222;2024-03-08T05:51:36;3.30;99.90
20081;DHT22;10200;49.232;9.222;2024-03-08T05:54:03;3.40;99.90
20081;DHT22;10200;49.232;9.222;2024-03-08T05:56:33;3.40;99.90
20081;DHT22;10200;49.232;9.222;2024-03-08T05:58:59;3.40;99.90
20081;DHT22;10200;49.232;9.222;2024-03-08T06:01:26;3.50;99.90
20081;DHT22;10200;49.232;9.222;2024-03-08T06:03:55;3.50;99.90
20081;DHT22;10200;49.232;9.222;2024-03-08T06:06:23;3.50;99.90
20081;DHT22;10200;49.232;9.222;2024-03-08T06:08:50;3.60;99.90
20081;DHT22;10200;49.232;9.222;2024-03-08T06:11:16;3.60;99.90
20081;DHT22;10200;49.232;9.222;2024-03-08T06:13:45;3.60;99.90
20081;DHT22;10200;49.232;9.222;2024-03-08T06:16:11;3.70;99.90
20081;DHT22;10200;49.232;9.222;2024-03-08T06:18:38;3.70;99.90
20081;DHT22;10200;49.232;9.222;2024-03-08T06:21:05;3.80;99.90
20081;DHT22;10200;49.232;9.222;2024-03-08T06:23:35;3.80;99.90
20081;DHT22;10200;49.232;9.222;2024-03-08T06:26:09;3.80;99.90
20081;DHT22;10200;49.232;9.222;2024-03-08T06:28:35;3.90;99.90
20081;DHT22;10200;49.232;9.222;2024-03-08T06:31:02;4.00;99.90
20081;DHT22;10200;49.232;9.222;2024-03-08T06:33:28;4.00;99.90
20081;DHT22;10200;49.232;9.222;2024-03-08T06:35:54;4.10;99.90
20081;DHT22;10200;49.232;9.222;2024-03-08T06:38:25;4.10;99.90
20081;DHT22;10200;49.232;9.222;2024-03-08T06:40:52;4.20;99.90
20081;DHT22;10200;49.232;9.222;2024-03-08T06:43:18;4.40;99.90
20081;DHT22;10200;49.232;9.222;2024-03-08T06:45:45;4.50;99.90
20081;DHT22;10200;49.232;9.222;2024-03-08T06:48:18;4.60;99.90
20081;DHT22;10200;49.232;9.222;2024-03-08T06:50:44;4.60;99.90
20081;DHT22;10200;49.232;9.222;2024-03-08T06:53:11;5.00;99.90
20081;DHT22;10200;49.232;9.222;2024-03-08T06:55:37;5.90;99.90
20081;DHT22;10200;49.232;9.222;2024-03-08T06:58:03;7.10;99.90
20081;DHT22;10200;49.232;9.222;2024-03-08T07:00:29;8.40;99.90
20081;DHT22;10200;49.232;9.222;2024-03-08T07:02:59;9.40;99.10
20081;DHT22;10200;49.232;9.222;2024-03-08T07:05:30;10.50;94.00
20081;DHT22;10200;49.232;9.222;2024-03-08T07:07:56;11.40;86.20
20081;DHT22;10200;49.232;9.222;2024-03-08T07:10:22;11.80;81.30
20081;DHT22;10200;49.232;9.222;2024-03-08T07:12:51;12.20;78.90
20081;DHT22;10200;49.232;9.222;2024-03-08T07:15:20;12.30;73.30
20081;DHT22;10200;49.232;9.222;2024-03-08T07:17:47;11.50;68.40
20081;DHT22;10200;49.232;9.222;2024-03-08T07:20:14;10.60;70.00
20081;DHT22;10200;49.232;9.222;2024-03-08T07:22:41;9.60;71.10
20081;DHT22;10200;49.232;9.222;2024-03-08T07:25:08;8.70;73.00
20081;DHT22;10200;49.232;9.222;2024-03-08T07:27:50;7.90;76.00
20081;DHT22;10200;49.232;9.222;2024-03-08T07:30:23;7.40;78.10
20081;DHT22;10200;49.232;9.222;2024-03-08T07:33:08;7.00;80.40
20081;DHT22;10200;49.232;9.222;2024-03-08T07:35:37;6.60;82.20
20081;DHT22;10200;49.232;9.222;2024-03-08T07:38:04;6.40;83.80
20081;DHT22;10200;49.232;9.222;2024-03-08T07:40:40;6.10;84.90
20081;DHT22;10200;49.232;9.222;2024-03-08T07:43:10;5.80;85.90
20081;DHT22;10200;49.232;9.222;2024-03-08T07:45:37;5.80;88.30
20081;DHT22;10200;49.232;9.222;2024-03-08T07:48:04;5.70;89.00
20081;DHT22;10200;49.232;9.222;2024-03-08T07:50:38;5.60;90.00
20081;DHT22;10200;49.232;9.222;2024-03-08T07:53:07;5.70;90.70
20081;DHT22;10200;49.232;9.222;2024-03-08T07:55:36;5.70;90.90
20081;DHT22;10200;49.232;9.222;2024-03-08T07:58:03;5.80;91.50
20081;DHT22;10200;49.232;9.222;2024-03-08T08:00:30;5.80;91.60
20081;DHT22;10200;49.232;9.222;2024-03-08T08:02:57;5.80;91.70
20081;DHT22;10200;49.232;9.222;2024-03-08T08:05:22;5.80;91.90
20081;DHT22;10200;49.232;9.222;2024-03-08T08:07:48;6.00;92.10
20081;DHT22;10200;49.232;9.222;2024-03-08T08:10:16;5.90;92.50
20081;DHT22;10200;49.232;9.222;2024-03-08T08:12:48;6.10;92.90
20081;DHT22;10200;49.232;9.222;2024-03-08T08:15:14;6.10;92.60
20081;DHT22;10200;49.232;9.222;2024-03-08T08:17:46;6.10;92.60
20081;DHT22;10200;49.232;9.222;2024-03-08T08:20:12;6.10;92.70
20081;DHT22;10200;49.232;9.222;2024-03-08T08:22:42;6.10;92.60
20081;DHT22;10200;49.232;9.222;2024-03-08T08:25:09;6.20;92.80
20081;DHT22;10200;49.232;9.222;2024-03-08T08:27:38;6.20;93.00
20081;DHT22;10200;49.232;9.222;2024-03-08T08:30:05;6.10;92.90
20081;DHT22;10200;49.232;9.222;2024-03-08T08:32:34;6.10;93.10
20081;DHT22;10200;49.232;9.222;2024-03-08T08:35:02;6.10;93.10
20081;DHT22;10200;49.232;9.222;2024-03-08T08:37:28;6.10;92.80
20081;DHT22;10200;49.232;9.222;2024-03-08T08:39:54;6.10;92.60
20081;DHT22;10200;49.232;9.222;2024-03-08T08:42:20;6.00;92.90
20081;DHT22;10200;49.232;9.222;2024-03-08T08:44:46;5.90;93.10
20081;DHT22;10200;49.232;9.222;2024-03-08T08:47:14;5.90;93.60
20081;DHT22;10200;49.232;9.222;2024-03-08T08:49:41;5.90;93.30
20081;DHT22;10200;49.232;9.222;2024-03-08T08:52:08;5.80;93.10
20081;DHT22;10200;49.232;9.222;2024-03-08T08:54:34;5.80;93.30
20081;DHT22;10200;49.232;9.222;2024-03-08T08:57:01;5.80;93.60
20081;DHT22;10200;49.232;9.222;2024-03-08T08:59:33;5.70;93.70
20081;DHT22;10200;49.232;9.222;2024-03-08T09:02:01;5.70;94.00
20081;DHT22;10200;49.232;9.222;2024-03-08T09:04:29;6.00;94.50
20081;DHT22;10200;49.232;9.222;2024-03-08T09:06:54;5.90;94.00
20081;DHT22;10200;49.232;9.222;2024-03-08T09:09:20;5.80;94.10
20081;DHT22;10200;49.232;9.222;2024-03-08T09:11:47;5.80;94.00
20081;DHT22;10200;49.232;9.222;2024-03-08T09:14:13;5.80;94.00
20081;DHT22;10200;49.232;9.222;2024-03-08T09:16:40;5.90;94.30
20081;DHT22;10200;49.232;9.222;2024-03-08T09:19:06;5.90;94.40
20081;DHT22;10200;49.232;9.222;2024-03-08T09:21:32;6.10;94.20
20081;DHT22;10200;49.232;9.222;2024-03-08T09:23:58;6.10;94.10
20081;DHT22;10200;49.232;9.222;2024-03-08T09:26:24;6.20;94.40
20081;DHT22;10200;49.232;9.222;2024-03-08T09:28:49;6.40;93.80
20081;DHT22;10200;49.232;9.222;2024-03-08T09:31:15;6.50;93.50
20081;DHT22;10200;49.232;9.222;2024-03-08T09:33:42;6.80;93.00
20081;DHT22;10200;49.232;9.222;2024-03-08T09:36:08;6.80;92.10
20081;DHT22;10200;49.232;9.222;2024-03-08T09:38:34;7.00;93.00
20081;DHT22;10200;49.232;9.222;2024-03-08T09:41:00;7.10;92.50
20081;DHT22;10200;49.232;9.222;2024-03-08T09:43:27;7.20;91.60
20081;DHT22;10200;49.232;9.222;2024-03-08T09:45:54;7.20;91.50
20081;DHT22;10200;49.232;9.222;2024-03-08T09:48:22;7.30;91.40
20081;DHT22;10200;49.232;9.222;2024-03-08T09:50:48;7.40;91.20
20081;DHT22;10200;49.232;9.222;2024-03-08T09:53:14;7.40;90.60
20081;DHT22;10200;49.232;9.222;2024-03-08T09:55:40;7.30;90.10
20081;DHT22;10200;49.232;9.222;2024-03-08T09:58:12;7.30;89.70
20081;DHT22;10200;49.232;9.222;2024-03-08T10:00:57;7.20;90.10
20081;DHT22;10200;49.232;9.222;2024-03-08T10:03:23;7.30;90.20
20081;DHT22;10200;49.232;9.222;2024-03-08T10:05:51;7.40;90.60
20081;DHT22;10200;49.232;9.222;2024-03-08T10:08:17;7.50;90.40
20081;DHT22;10200;49.232;9.222;2024-03-08T10:10:43;7.60;90.40
20081;DHT22;10200;49.232;9.222;2024-03-08T10:13:10;7.70;89.00
20081;DHT22;10200;49.232;9.222;2024-03-08T10:15:39;7.70;89.00
20081;DHT22;10200;49.232;9.222;2024-03-08T10:18:06;7.80;89.20
20081;DHT22;10200;49.232;9.222;2024-03-08T10:20:32;8.00;89.10
20081;DHT22;10200;49.232;9.222;2024-03-08T10:23:02;8.10;88.50
20081;DHT22;10200;49.232;9.222;2024-03-08T10:25:34;8.10;87.50
20081;DHT22;10200;49.232;9.222;2024-03-08T10:28:03;8.10;87.20
20081;DHT22;10200;49.232;9.222;2024-03-08T10:30:30;8.30;87.60
20081;DHT22;10200;49.232;9.222;2024-03-08T10:32:56;8.30;86.70
20081;DHT22;10200;49.232;9.222;2024-03-08T10:35:22;8.30;85.70
20081;DHT22;10200;49.232;9.222;2024-03-08T10:37:50;8.30;85.70
20081;DHT22;10200;49.232;9.222;2024-03-08T10:40:24;8.20;86.40
20081;DHT22;10200;49.232;9.222;2024-03-08T10:42:54;8.30;85.60
20081;DHT22;10200;49.232;9.222;2024-03-08T10:45:38;8.30;85.30
20081;DHT22;10200;49.232;9.222;2024-03-08T10:48:34;8.30;85.90
20081;DHT22;10200;49.232;9.222;2024-03-08T10:51:03;8.50;86.70
20081;DHT22;10200;49.232;9.222;2024-03-08T10:53:29;8.60;85.20
20081;DHT22;10200;49.232;9.222;2024-03-08T10:55:59;8.60;85.30
20081;DHT22;10200;49.232;9.222;2024-03-08T10:58:27;8.60;84.70
20081;DHT22;10200;49.232;9.222;2024-03-08T11:00:56;8.70;85.10
20081;DHT22;10200;49.232;9.222;2024-03-08T11:06:07;8.70;85.20
20081;DHT22;10200;49.232;9.222;2024-03-08T11:08:36;8.80;83.90
20081;DHT22;10200;49.232;9.222;2024-03-08T11:11:02;8.80;84.80
20081;DHT22;10200;49.232;9.222;2024-03-08T11:13:37;8.90;84.80
20081;DHT22;10200;49.232;9.222;2024-03-08T11:19:23;9.00;84.50
20081;DHT22;10200;49.232;9.222;2024-03-08T11:22:22;9.10;83.50
20081;DHT22;10200;49.232;9.222;2024-03-08T11:24:49;9.10;83.70
20081;DHT22;10200;49.232;9.222;2024-03-08T11:27:15;9.10;82.90
20081;DHT22;10200;49.232;9.222;2024-03-08T11:29:41;9.20;83.70
20081;DHT22;10200;49.232;9.222;2024-03-08T11:32:09;9.20;82.00
20081;DHT22;10200;49.232;9.222;2024-03-08T11:34:46;9.30;82.90
20081;DHT22;10200;49.232;9.222;2024-03-08T11:37:17;9.30;82.40
20081;DHT22;10200;49.232;9.222;2024-03-08T11:39:51;9.40;82.40
20081;DHT22;10200;49.232;9.222;2024-03-08T11:42:18;9.40;82.60
20081;DHT22;10200;49.232;9.222;2024-03-08T11:44:45;9.40;82.40
20081;DHT22;10200;49.232;9.222;2024-03-08T11:47:11;9.40;82.00
20081;DHT22;10200;49.232;9.222;2024-03-08T11:49:40;9.50;82.60
20081;DHT22;10200;49.232;9.222;2024-03-08T11:52:18;9.60;81.60
20081;DHT22;10200;49.232;9.222;2024-03-08T11:54:54;9.60;82.40
20081;DHT22;10200;49.232;9.222;2024-03-08T11:57:25;9.60;82.20
20081;DHT22;10200;49.232;9.222;2024-03-08T11:59:52;9.70;82.20
20081;DHT22;10200;49.232;9.222;2024-03-08T12:02:18;9.70;81.50
20081;DHT22;10200;49.232;9.222;2024-03-08T12:04:45;9.80;80.90
20081;DHT22;10200;49.232;9.222;2024-03-08T12:07:14;9.80;81.00
20081;DHT22;10200;49.232;9.222;2024-03-08T12:09:44;9.90;81.00
20081;DHT22;10200;49.232;9.222;2024-03-08T12:12:30;9.90;80.60
20081;DHT22;10200;49.232;9.222;2024-03-08T12:14:57;10.00;80.80
20081;DHT22;10200;49.232;9.222;2024-03-08T12:17:23;10.00;80.10
20081;DHT22;10200;49.232;9.222;2024-03-08T12:19:49;10.00;80.00
20081;DHT22;10200;49.232;9.222;2024-03-08T12:22:15;10.00;79.40
20081;DHT22;10200;49.232;9.222;2024-03-08T12:24:41;10.10;80.40
20081;DHT22;10200;49.232;9.222;2024-03-08T12:27:18;10.20;79.20
20081;DHT22;10200;49.232;9.222;2024-03-08T12:29:45;10.20;79.20
20081;DHT22;10200;49.232;9.222;2024-03-08T12:32:10;10.10;78.30
20081;DHT22;10200;49.232;9.222;2024-03-08T12:34:37;10.20;78.40
20081;DHT22;10200;49.232;9.222;2024-03-08T12:37:02;10.20;78.20
20081;DHT22;10200;49.232;9.222;2024-03-08T12:39:32;10.20;78.10
20081;DHT22;10200;49.232;9.222;2024-03-08T12:41:58;10.30;78.50
20081;DHT22;10200;49.232;9.222;2024-03-08T12:44:25;10.40;78.30
20081;DHT22;10200;49.232;9.222;2024-03-08T12:46:51;10.40;78.50
20081;DHT22;10200;49.232;9.222;2024-03-08T12:49:19;10.50;78.50
20081;DHT22;10200;49.232;9.222;2024-03-08T12:51:48;10.60;77.60
20081;DHT22;10200;49.232;9.222;2024-03-08T12:54:20;10.70;77.10
20081;DHT22;10200;49.232;9.222;2024-03-08T12:56:48;10.70;76.60
20081;DHT22;10200;49.232;9.222;2024-03-08T12:59:15;10.70;76.30
20081;DHT22;10200;49.232;9.222;2024-03-08T13:01:41;10.70;75.90
20081;DHT22;10200;49.232;9.222;2024-03-08T13:04:07;10.80;76.60
20081;DHT22;10200;49.232;9.222;2024-03-08T13:06:36;10.80;76.10
20081;DHT22;10200;49.232;9.222;2024-03-08T13:09:02;10.90;75.70
20081;DHT22;10200;49.232;9.222;2024-03-08T13:11:31;10.90;75.00
20081;DHT22;10200;49.232;9.222;2024-03-08T13:14:02;11.00;75.30
20081;DHT22;10200;49.232;9.222;2024-03-08T13:16:29;11.00;75.10
20081;DHT22;10200;49.232;9.222;2024-03-08T13:18:55;11.00;74.90
20081;DHT22;10200;49.232;9.222;2024-03-08T13:21:22;11.00;73.90
20081;DHT22;10200;49.232;9.222;2024-03-08T13:23:49;11.00;74.50
20081;DHT22;10200;49.232;9.222;2024-03-08T13:26:15;11.10;74.70
20081;DHT22;10200;49.232;9.222;2024-03-08T13:28:48;11.10;74.00
20081;DHT22;10200;49.232;9.222;2024-03-08T13:31:22;11.10;73.80
20081;DHT22;10200;49.232;9.222;2024-03-08T13:33:49;11.20;74.10
20081;DHT22;10200;49.232;9.222;2024-03-08T13:36:16;11.20;73.40
20081;DHT22;10200;49.232;9.222;2024-03-08T13:38:46;11.20;73.90
20081;DHT22;10200;49.232;9.222;2024-03-08T13:41:12;11.30;73.90
20081;DHT22;10200;49.232;9.222;2024-03-08T13:43:40;11.40;74.20
20081;DHT22;10200;49.232;9.222;2024-03-08T13:46:06;11.50;73.40
20081;DHT22;10200;49.232;9.222;2024-03-08T13:48:35;11.50;72.40
20081;DHT22;10200;49.232;9.222;2024-03-08T13:51:03;11.50;72.00
20081;DHT22;10200;49.232;9.222;2024-03-08T13:53:30;11.50;72.60
20081;DHT22;10200;49.232;9.222;2024-03-08T13:55:55;11.50;73.20
20081;DHT22;10200;49.232;9.222;2024-03-08T13:58:22;11.50;72.40
20081;DHT22;10200;49.232;9.222;2024-03-08T14:00:47;11.50;71.50
20081;DHT22;10200;49.232;9.222;2024-03-08T14:03:13;11.50;71.30
20081;DHT22;10200;49.232;9.222;2024-03-08T14:05:40;11.50;71.20
20081;DHT22;10200;49.232;9.222;2024-03-08T14:08:07;11.50;71.30
20081;DHT22;10200;49.232;9.222;2024-03-08T14:10:34;11.60;72.10
20081;DHT22;10200;49.232;9.222;2024-03-08T14:13:00;11.60;72.10
20081;DHT22;10200;49.232;9.222;2024-03-08T14:15:26;11.60;72.30
20081;DHT22;10200;49.232;9.222;2024-03-08T14:17:55;11.70;72.40
20081;DHT22;10200;49.232;9.222;2024-03-08T14:20:22;11.80;72.30
20081;DHT22;10200;49.232;9.222;2024-03-08T14:22:54;11.80;72.30
20081;DHT22;10200;49.232;9.222;2024-03-08T14:25:23;11.90;72.10
20081;DHT22;10200;49.232;9.222;2024-03-08T14:27:50;11.90;72.40
20081;DHT22;10200;49.232;9.222;2024-03-08T14:30:19;12.00;71.20
20081;DHT22;10200;49.232;9.222;2024-03-08T14:33:02;12.00;70.90
20081;DHT22;10200;49.232;9.222;2024-03-08T14:35:31;12.00;71.40
20081;DHT22;10200;49.232;9.222;2024-03-08T14:37:57;12.00;71.30
20081;DHT22;10200;49.232;9.222;2024-03-08T14:40:26;12.10;71.40
20081;DHT22;10200;49.232;9.222;2024-03-08T14:42:52;12.10;71.50
20081;DHT22;10200;49.232;9.222;2024-03-08T14:45:18;12.10;70.70
20081;DHT22;10200;49.232;9.222;2024-03-08T14:47:47;12.10;70.80
20081;DHT22;10200;49.232;9.222;2024-03-08T14:50:19;12.10;70.20
20081;DHT22;10200;49.232;9.222;2024-03-08T14:52:46;12.10;69.70
20081;DHT22;10200;49.232;9.222;2024-03-08T14:55:14;12.00;69.50
20081;DHT22;10200;49.232;9.222;2024-03-08T14:57:41;12.00;69.50
20081;DHT22;10200;49.232;9.222;2024-03-08T15:00:07;12.00;69.50
20081;DHT22;10200;49.232;9.222;2024-03-08T15:02:41;12.00;69.80
20081;DHT22;10200;49.232;9.222;2024-03-08T15:05:07;12.10;69.50
20081;DHT22;10200;49.232;9.222;2024-03-08T15:07:40;12.10;69.50
20081;DHT22;10200;49.232;9.222;2024-03-08T15:10:09;12.10;69.60
20081;DHT22;10200;49.232;9.222;2024-03-08T15:12:42;12.20;70.10
20081;DHT22;10200;49.232;9.222;2024-03-08T15:15:11;12.10;69.60
20081;DHT22;10200;49.232;9.222;2024-03-08T15:17:39;12.20;69.20
20081;DHT22;10200;49.232;9.222;2024-03-08T15:20:06;12.20;69.20
20081;DHT22;10200;49.232;9.222;2024-03-08T15:22:41;12.20;69.20
20081;DHT22;10200;49.232;9.222;2024-03-08T15:25:07;12.10;68.70
20081;DHT22;10200;49.232;9.222;2024-03-08T15:27:33;12.10;68.80
20081;DHT22;10200;49.232;9.222;2024-03-08T15:29:58;12.10;69.00
20081;DHT22;10200;49.232;9.222;2024-03-08T15:32:24;12.10;68.70
20081;DHT22;10200;49.232;9.222;2024-03-08T15:34:49;12.10;68.20
20081;DHT22;10200;49.232;9.222;2024-03-08T15:37:19;12.10;68.40
20081;DHT22;10200;49.232;9.222;2024-03-08T15:39:44;12.10;69.10
20081;DHT22;10200;49.232;9.222;2024-03-08T15:42:11;12.10;69.00
20081;DHT22;10200;49.232;9.222;2024-03-08T15:44:37;12.10;68.60
20081;DHT22;10200;49.232;9.222;2024-03-08T15:47:04;12.10;68.70
20081;DHT22;10200;49.232;9.222;2024-03-08T15:49:32;12.10;69.10
20081;DHT22;10200;49.232;9.222;2024-03-08T15:51:58;12.00;69.30
20081;DHT22;10200;49.232;9.222;2024-03-08T15:54:23;12.00;68.80